sensor_id;sensor_type;location;lat;lon;timestamp;P1;durP1;ratioP1;P2;durP2;ratioP2
58384;SDS011;44185;47.844;8.966;2023-04-21T00:00:51;8.32;;;3.55;;
58384;SDS011;44185;47.844;8.966;2023-04-21T00:03:17;5.75;;;3.38;;
58384;SDS011;44185;47.844;8.966;2023-04-21T00:05:44;6.85;;;3.28;;
58384;SDS011;44185;47.844;8.966;2023-04-21T00:08:09;6.63;;;3.15;;
58384;SDS011;44185;47.844;8.966;2023-04-21T00:10:35;7.22;;;3.30;;
58384;SDS011;44185;47.844;8.966;2023-04-21T00:13:00;5.10;;;3.22;;
58384;SDS011;44185;47.844;8.966;2023-04-21T00:15:26;5.32;;;2.70;;
58384;SDS011;44185;47.844;8.966;2023-04-21T00:17:51;5.18;;;3.30;;
58384;SDS011;44185;47.844;8.966;2023-04-21T00:20:17;4.22;;;2.95;;
58384;SDS011;44185;47.844;8.966;2023-04-21T00:22:44;5.88;;;3.20;;
58384;SDS011;44185;47.844;8.966;2023-04-21T00:25:09;5.32;;;3.38;;
58384;SDS011;44185;47.844;8.966;2023-04-21T00:27:34;6.90;;;3.50;;
58384;SDS011;44185;47.844;8.966;2023-04-21T00:30:00;5.70;;;2.83;;
58384;SDS011;44185;47.844;8.966;2023-04-21T00:32:26;4.05;;;3.00;;
58384;SDS011;44185;47.844;8.966;2023-04-21T00:34:51;4.90;;;3.33;;
58384;SDS011;44185;47.844;8.966;2023-04-21T00:37:16;4.90;;;3.33;;
58384;SDS011;44185;47.844;8.966;2023-04-21T00:39:43;7.05;;;3.50;;
58384;SDS011;44185;47.844;8.966;2023-04-21T00:42:09;4.78;;;3.20;;
58384;SDS011;44185;47.844;8.966;2023-04-21T00:44:34;6.72;;;3.30;;
58384;SDS011;44185;47.844;8.966;2023-04-21T00:47:00;6.43;;;3.53;;
58384;SDS011;44185;47.844;8.966;2023-04-21T00:49:25;5.93;;;3.35;;
58384;SDS011;44185;47.844;8.966;2023-04-21T00:51:51;5.63;;;3.00;;
58384;SDS011;44185;47.844;8.966;2023-04-21T00:54:17;7.68;;;3.53;;
58384;SDS011;44185;47.844;8.966;2023-04-21T00:56:44;7.07;;;3.88;;
58384;SDS011;44185;47.844;8.966;2023-04-21T00:59:10;5.90;;;3.40;;
58384;SDS011;44185;47.844;8.966;2023-04-21T01:01:35;5.05;;;2.90;;
58384;SDS011;44185;47.844;8.966;2023-04-21T01:04:01;6.47;;;3.33;;
58384;SDS011;44185;47.844;8.966;2023-04-21T01:06:28;5.28;;;3.65;;
58384;SDS011;44185;47.844;8.966;2023-04-21T01:08:54;7.07;;;3.75;;
58384;SDS011;44185;47.844;8.966;2023-04-21T01:11:20;7.20;;;3.70;;
58384;SDS011;44185;47.844;8.966;2023-04-21T01:13:47;6.57;;;3.72;;
58384;SDS011;44185;47.844;8.966;2023-04-21T01:16:14;8.75;;;4.10;;
58384;SDS011;44185;47.844;8.966;2023-04-21T01:18:40;6.75;;;3.75;;
58384;SDS011;44185;47.844;8.966;2023-04-21T01:21:06;9.98;;;4.63;;
58384;SDS011;44185;47.844;8.966;2023-04-21T01:23:33;7.50;;;3.72;;
58384;SDS011;44185;47.844;8.966;2023-04-21T01:25:58;7.38;;;3.92;;
58384;SDS011;44185;47.844;8.966;2023-04-21T01:28:24;7.78;;;4.15;;
58384;SDS011;44185;47.844;8.966;2023-04-21T01:30:50;8.57;;;4.13;;
58384;SDS011;44185;47.844;8.966;2023-04-21T01:33:16;6.45;;;3.72;;
58384;SDS011;44185;47.844;8.966;2023-04-21T01:35:43;7.53;;;3.80;;
58384;SDS011;44185;47.844;8.966;2023-04-21T01:38:08;9.95;;;4.10;;
58384;SDS011;44185;47.844;8.966;2023-04-21T01:40:35;7.38;;;4.03;;
58384;SDS011;44185;47.844;8.966;2023-04-21T01:43:01;8.48;;;4.13;;
58384;SDS011;44185;47.844;8.966;2023-04-21T01:45:27;10.43;;;4.60;;
58384;SDS011;44185;47.844;8.966;2023-04-21T01:47:52;7.90;;;4.40;;
58384;SDS011;44185;47.844;8.966;2023-04-21T01:50:18;9.02;;;3.95;;
58384;SDS011;44185;47.844;8.966;2023-04-21T01:52:43;11.20;;;4.40;;
58384;SDS011;44185;47.844;8.966;2023-04-21T01:55:08;6.90;;;4.25;;
58384;SDS011;44185;47.844;8.966;2023-04-21T01:57:35;8.73;;;4.22;;
58384;SDS011;44185;47.844;8.966;2023-04-21T02:00:01;9.25;;;3.60;;
58384;SDS011;44185;47.844;8.966;2023-04-21T02:02:26;8.55;;;4.07;;
58384;SDS011;44185;47.844;8.966;2023-04-21T02:04:52;9.20;;;4.10;;
58384;SDS011;44185;47.844;8.966;2023-04-21T02:07:17;7.70;;;3.58;;
58384;SDS011;44185;47.844;8.966;2023-04-21T02:09:43;6.78;;;3.35;;
58384;SDS011;44185;47.844;8.966;2023-04-21T02:12:08;7.07;;;3.95;;
58384;SDS011;44185;47.844;8.966;2023-04-21T02:14:36;5.80;;;3.63;;
58384;SDS011;44185;47.844;8.966;2023-04-21T02:17:02;7.53;;;3.72;;
58384;SDS011;44185;47.844;8.966;2023-04-21T02:19:27;8.18;;;4.18;;
58384;SDS011;44185;47.844;8.966;2023-04-21T02:21:53;8.38;;;3.90;;
58384;SDS011;44185;47.844;8.966;2023-04-21T02:24:19;7.53;;;3.80;;
58384;SDS011;44185;47.844;8.966;2023-04-21T02:26:44;6.35;;;3.75;;
58384;SDS011;44185;47.844;8.966;2023-04-21T02:29:09;6.75;;;3.80;;
58384;SDS011;44185;47.844;8.966;2023-04-21T02:31:36;6.20;;;3.60;;
58384;SDS011;44185;47.844;8.966;2023-04-21T02:34:02;8.15;;;3.92;;
58384;SDS011;44185;47.844;8.966;2023-04-21T02:36:27;9.30;;;3.80;;
58384;SDS011;44185;47.844;8.966;2023-04-21T02:38:53;9.38;;;4.45;;
58384;SDS011;44185;47.844;8.966;2023-04-21T02:41:19;10.38;;;4.45;;
58384;SDS011;44185;47.844;8.966;2023-04-21T02:43:44;9.05;;;4.63;;
58384;SDS011;44185;47.844;8.966;2023-04-21T02:46:09;9.15;;;4.30;;
58384;SDS011;44185;47.844;8.966;2023-04-21T02:48:36;9.85;;;4.53;;
58384;SDS011;44185;47.844;8.966;2023-04-21T02:51:02;9.00;;;4.40;;
58384;SDS011;44185;47.844;8.966;2023-04-21T02:53:27;8.02;;;4.05;;
58384;SDS011;44185;47.844;8.966;2023-04-21T02:55:53;9.38;;;3.95;;
58384;SDS011;44185;47.844;8.966;2023-04-21T02:58:19;8.48;;;4.18;;
58384;SDS011;44185;47.844;8.966;2023-04-21T03:00:44;8.52;;;4.22;;
58384;SDS011;44185;47.844;8.966;2023-04-21T03:03:09;8.00;;;3.92;;
58384;SDS011;44185;47.844;8.966;2023-04-21T03:05:36;9.63;;;4.60;;
58384;SDS011;44185;47.844;8.966;2023-04-21T03:08:02;9.40;;;4.93;;
58384;SDS011;44185;47.844;8.966;2023-04-21T03:10:27;10.18;;;4.50;;
58384;SDS011;44185;47.844;8.966;2023-04-21T03:12:53;9.52;;;4.55;;
58384;SDS011;44185;47.844;8.966;2023-04-21T03:15:19;9.30;;;4.65;;
58384;SDS011;44185;47.844;8.966;2023-04-21T03:17:44;6.85;;;4.07;;
58384;SDS011;44185;47.844;8.966;2023-04-21T03:20:10;10.00;;;4.65;;
58384;SDS011;44185;47.844;8.966;2023-04-21T03:22:37;7.20;;;4.05;;
58384;SDS011;44185;47.844;8.966;2023-04-21T03:25:03;7.82;;;4.65;;
58384;SDS011;44185;47.844;8.966;2023-04-21T03:27:29;8.48;;;4.40;;
58384;SDS011;44185;47.844;8.966;2023-04-21T03:29:55;8.02;;;4.30;;
58384;SDS011;44185;47.844;8.966;2023-04-21T03:32:23;9.95;;;4.72;;
58384;SDS011;44185;47.844;8.966;2023-04-21T03:34:49;8.25;;;4.53;;
58384;SDS011;44185;47.844;8.966;2023-04-21T03:37:14;11.07;;;4.55;;
58384;SDS011;44185;47.844;8.966;2023-04-21T03:39:41;11.30;;;4.72;;
58384;SDS011;44185;47.844;8.966;2023-04-21T03:42:06;8.45;;;4.13;;
58384;SDS011;44185;47.844;8.966;2023-04-21T03:44:32;9.52;;;4.30;;
58384;SDS011;44185;47.844;8.966;2023-04-21T03:46:57;11.50;;;4.70;;
58384;SDS011;44185;47.844;8.966;2023-04-21T03:49:23;10.30;;;4.75;;
58384;SDS011;44185;47.844;8.966;2023-04-21T03:51:49;10.52;;;5.00;;
58384;SDS011;44185;47.844;8.966;2023-04-21T03:54:14;10.63;;;4.95;;
58384;SDS011;44185;47.844;8.966;2023-04-21T03:56:41;11.75;;;4.85;;
58384;SDS011;44185;47.844;8.966;2023-04-21T03:59:06;12.65;;;4.88;;
58384;SDS011;44185;47.844;8.966;2023-04-21T04:01:32;13.95;;;5.75;;
58384;SDS011;44185;47.844;8.966;2023-04-21T04:03:58;12.63;;;5.32;;
58384;SDS011;44185;47.844;8.966;2023-04-21T04:06:23;11.90;;;5.28;;
58384;SDS011;44185;47.844;8.966;2023-04-21T04:08:49;9.60;;;4.80;;
58384;SDS011;44185;47.844;8.966;2023-04-21T04:11:14;11.48;;;4.50;;
58384;SDS011;44185;47.844;8.966;2023-04-21T04:13:41;11.23;;;5.30;;
58384;SDS011;44185;47.844;8.966;2023-04-21T04:16:06;12.43;;;5.47;;
58384;SDS011;44185;47.844;8.966;2023-04-21T04:18:32;11.23;;;5.40;;
58384;SDS011;44185;47.844;8.966;2023-04-21T04:20:57;9.52;;;4.38;;
58384;SDS011;44185;47.844;8.966;2023-04-21T04:23:23;9.00;;;4.43;;
58384;SDS011;44185;47.844;8.966;2023-04-21T04:25:49;9.70;;;4.90;;
58384;SDS011;44185;47.844;8.966;2023-04-21T04:28:14;10.40;;;4.85;;
58384;SDS011;44185;47.844;8.966;2023-04-21T04:30:41;11.13;;;4.80;;
58384;SDS011;44185;47.844;8.966;2023-04-21T04:33:06;13.48;;;5.20;;
58384;SDS011;44185;47.844;8.966;2023-04-21T04:35:32;12.27;;;5.10;;
58384;SDS011;44185;47.844;8.966;2023-04-21T04:37:57;12.02;;;4.97;;
58384;SDS011;44185;47.844;8.966;2023-04-21T04:40:23;11.38;;;5.35;;
58384;SDS011;44185;47.844;8.966;2023-04-21T04:42:49;14.32;;;6.00;;
58384;SDS011;44185;47.844;8.966;2023-04-21T04:45:14;11.75;;;5.47;;
58384;SDS011;44185;47.844;8.966;2023-04-21T04:47:41;13.80;;;5.50;;
58384;SDS011;44185;47.844;8.966;2023-04-21T04:50:07;11.88;;;5.35;;
58384;SDS011;44185;47.844;8.966;2023-04-21T04:52:32;14.70;;;5.95;;
58384;SDS011;44185;47.844;8.966;2023-04-21T04:54:58;13.98;;;5.68;;
58384;SDS011;44185;47.844;8.966;2023-04-21T04:57:23;13.13;;;6.00;;
58384;SDS011;44185;47.844;8.966;2023-04-21T04:59:53;12.60;;;5.85;;
58384;SDS011;44185;47.844;8.966;2023-04-21T05:02:18;12.32;;;5.70;;
58384;SDS011;44185;47.844;8.966;2023-04-21T05:04:45;11.65;;;5.25;;
58384;SDS011;44185;47.844;8.966;2023-04-21T05:07:10;11.30;;;4.70;;
58384;SDS011;44185;47.844;8.966;2023-04-21T05:09:36;10.10;;;5.05;;
58384;SDS011;44185;47.844;8.966;2023-04-21T05:12:01;12.43;;;4.97;;
58384;SDS011;44185;47.844;8.966;2023-04-21T05:14:27;12.38;;;5.32;;
58384;SDS011;44185;47.844;8.966;2023-04-21T05:16:52;11.18;;;4.90;;
58384;SDS011;44185;47.844;8.966;2023-04-21T05:19:18;10.15;;;4.90;;
58384;SDS011;44185;47.844;8.966;2023-04-21T05:21:44;10.57;;;4.88;;
58384;SDS011;44185;47.844;8.966;2023-04-21T05:24:10;11.82;;;5.50;;
58384;SDS011;44185;47.844;8.966;2023-04-21T05:26:35;11.27;;;5.13;;
58384;SDS011;44185;47.844;8.966;2023-04-21T05:29:01;9.52;;;4.45;;
58384;SDS011;44185;47.844;8.966;2023-04-21T05:31:26;14.52;;;5.25;;
58384;SDS011;44185;47.844;8.966;2023-04-21T05:33:51;14.70;;;5.57;;
58384;SDS011;44185;47.844;8.966;2023-04-21T05:36:17;12.65;;;5.88;;
58384;SDS011;44185;47.844;8.966;2023-04-21T05:38:44;17.52;;;7.85;;
58384;SDS011;44185;47.844;8.966;2023-04-21T05:41:09;17.42;;;7.65;;
58384;SDS011;44185;47.844;8.966;2023-04-21T05:43:35;18.27;;;9.65;;
58384;SDS011;44185;47.844;8.966;2023-04-21T05:46:00;19.85;;;9.88;;
58384;SDS011;44185;47.844;8.966;2023-04-21T05:48:27;20.40;;;8.85;;
58384;SDS011;44185;47.844;8.966;2023-04-21T05:50:53;16.45;;;7.60;;
58384;SDS011;44185;47.844;8.966;2023-04-21T05:53:19;13.55;;;6.07;;
58384;SDS011;44185;47.844;8.966;2023-04-21T05:55:45;13.88;;;6.05;;
58384;SDS011;44185;47.844;8.966;2023-04-21T05:58:11;15.70;;;6.25;;
58384;SDS011;44185;47.844;8.966;2023-04-21T06:00:36;12.85;;;6.30;;
58384;SDS011;44185;47.844;8.966;2023-04-21T06:03:02;11.02;;;5.10;;
58384;SDS011;44185;47.844;8.966;2023-04-21T06:05:27;13.13;;;5.93;;
58384;SDS011;44185;47.844;8.966;2023-04-21T06:07:53;15.10;;;6.47;;
58384;SDS011;44185;47.844;8.966;2023-04-21T06:10:19;13.55;;;6.35;;
58384;SDS011;44185;47.844;8.966;2023-04-21T06:12:46;13.32;;;6.30;;
58384;SDS011;44185;47.844;8.966;2023-04-21T06:15:11;15.23;;;6.32;;
58384;SDS011;44185;47.844;8.966;2023-04-21T06:17:37;12.38;;;5.32;;
58384;SDS011;44185;47.844;8.966;2023-04-21T06:20:02;13.63;;;5.88;;
58384;SDS011;44185;47.844;8.966;2023-04-21T06:22:28;14.75;;;5.32;;
58384;SDS011;44185;47.844;8.966;2023-04-21T06:24:54;13.38;;;5.72;;
58384;SDS011;44185;47.844;8.966;2023-04-21T06:27:19;15.02;;;5.85;;
58384;SDS011;44185;47.844;8.966;2023-04-21T06:29:46;13.95;;;6.15;;
58384;SDS011;44185;47.844;8.966;2023-04-21T06:32:12;13.15;;;5.78;;
58384;SDS011;44185;47.844;8.966;2023-04-21T06:34:37;13.60;;;5.57;;
58384;SDS011;44185;47.844;8.966;2023-04-21T06:37:03;12.32;;;5.07;;
58384;SDS011;44185;47.844;8.966;2023-04-21T06:39:28;11.82;;;5.43;;
58384;SDS011;44185;47.844;8.966;2023-04-21T06:41:54;14.00;;;5.75;;
58384;SDS011;44185;47.844;8.966;2023-04-21T06:44:19;11.60;;;5.18;;
58384;SDS011;44185;47.844;8.966;2023-04-21T06:46:46;12.52;;;5.32;;
58384;SDS011;44185;47.844;8.966;2023-04-21T06:49:15;12.73;;;5.45;;
58384;SDS011;44185;47.844;8.966;2023-04-21T06:51:41;13.07;;;6.10;;
58384;SDS011;44185;47.844;8.966;2023-04-21T06:54:06;8.02;;;4.38;;
58384;SDS011;44185;47.844;8.966;2023-04-21T06:56:31;11.05;;;4.78;;
58384;SDS011;44185;47.844;8.966;2023-04-21T06:58:57;10.68;;;5.10;;
58384;SDS011;44185;47.844;8.966;2023-04-21T07:01:22;10.25;;;4.70;;
58384;SDS011;44185;47.844;8.966;2023-04-21T07:03:49;12.93;;;5.35;;
58384;SDS011;44185;47.844;8.966;2023-04-21T07:06:15;10.02;;;5.15;;
58384;SDS011;44185;47.844;8.966;2023-04-21T07:08:40;11.02;;;5.00;;
58384;SDS011;44185;47.844;8.966;2023-04-21T07:11:06;11.45;;;5.30;;
58384;SDS011;44185;47.844;8.966;2023-04-21T07:13:32;13.80;;;6.40;;
58384;SDS011;44185;47.844;8.966;2023-04-21T07:15:57;12.00;;;5.25;;
58384;SDS011;44185;47.844;8.966;2023-04-21T07:18:23;10.15;;;4.82;;
58384;SDS011;44185;47.844;8.966;2023-04-21T07:20:50;11.88;;;5.78;;
58384;SDS011;44185;47.844;8.966;2023-04-21T07:23:16;12.75;;;6.43;;
58384;SDS011;44185;47.844;8.966;2023-04-21T07:25:41;12.73;;;5.90;;
58384;SDS011;44185;47.844;8.966;2023-04-21T07:28:07;12.73;;;5.50;;
58384;SDS011;44185;47.844;8.966;2023-04-21T07:30:32;11.60;;;5.43;;
58384;SDS011;44185;47.844;8.966;2023-04-21T07:32:58;11.13;;;4.90;;
58384;SDS011;44185;47.844;8.966;2023-04-21T07:35:23;12.75;;;5.05;;
58384;SDS011;44185;47.844;8.966;2023-04-21T07:37:50;10.00;;;5.10;;
58384;SDS011;44185;47.844;8.966;2023-04-21T07:40:16;9.68;;;4.75;;
58384;SDS011;44185;47.844;8.966;2023-04-21T07:42:41;9.57;;;4.60;;
58384;SDS011;44185;47.844;8.966;2023-04-21T07:45:07;11.20;;;5.13;;
58384;SDS011;44185;47.844;8.966;2023-04-21T07:47:33;10.43;;;4.78;;
58384;SDS011;44185;47.844;8.966;2023-04-21T07:49:58;9.82;;;4.70;;
58384;SDS011;44185;47.844;8.966;2023-04-21T07:52:24;11.77;;;5.20;;
58384;SDS011;44185;47.844;8.966;2023-04-21T07:54:51;8.83;;;4.60;;
58384;SDS011;44185;47.844;8.966;2023-04-21T07:57:16;13.25;;;5.05;;
58384;SDS011;44185;47.844;8.966;2023-04-21T07:59:42;10.23;;;4.97;;
58384;SDS011;44185;47.844;8.966;2023-04-21T08:02:07;11.98;;;5.15;;
58384;SDS011;44185;47.844;8.966;2023-04-21T08:04:33;10.43;;;4.88;;
58384;SDS011;44185;47.844;8.966;2023-04-21T08:06:58;9.27;;;4.80;;
58384;SDS011;44185;47.844;8.966;2023-04-21T08:09:24;10.35;;;5.38;;
58384;SDS011;44185;47.844;8.966;2023-04-21T08:11:51;8.75;;;4.53;;
58384;SDS011;44185;47.844;8.966;2023-04-21T08:14:17;10.52;;;4.75;;
58384;SDS011;44185;47.844;8.966;2023-04-21T08:16:42;11.55;;;5.13;;
58384;SDS011;44185;47.844;8.966;2023-04-21T08:19:08;8.75;;;4.80;;
58384;SDS011;44185;47.844;8.966;2023-04-21T08:21:34;9.75;;;4.45;;
58384;SDS011;44185;47.844;8.966;2023-04-21T08:23:59;9.88;;;5.10;;
58384;SDS011;44185;47.844;8.966;2023-04-21T08:26:25;10.18;;;4.28;;
58384;SDS011;44185;47.844;8.966;2023-04-21T08:28:52;5.82;;;3.55;;
58384;SDS011;44185;47.844;8.966;2023-04-21T08:31:17;10.95;;;4.80;;
58384;SDS011;44185;47.844;8.966;2023-04-21T08:33:43;10.20;;;5.15;;
58384;SDS011;44185;47.844;8.966;2023-04-21T08:36:09;7.80;;;4.07;;
58384;SDS011;44185;47.844;8.966;2023-04-21T08:38:35;10.77;;;4.82;;
58384;SDS011;44185;47.844;8.966;2023-04-21T08:41:00;9.90;;;5.30;;
58384;SDS011;44185;47.844;8.966;2023-04-21T08:43:27;8.35;;;4.65;;
58384;SDS011;44185;47.844;8.966;2023-04-21T08:45:55;7.47;;;4.50;;
58384;SDS011;44185;47.844;8.966;2023-04-21T08:48:20;17.25;;;10.90;;
58384;SDS011;44185;47.844;8.966;2023-04-21T08:50:46;10.77;;;5.50;;
58384;SDS011;44185;47.844;8.966;2023-04-21T08:53:13;25.38;;;22.27;;
58384;SDS011;44185;47.844;8.966;2023-04-21T08:55:39;8.00;;;4.30;;
58384;SDS011;44185;47.844;8.966;2023-04-21T08:58:06;7.03;;;4.40;;
58384;SDS011;44185;47.844;8.966;2023-04-21T09:00:32;9.23;;;3.75;;
58384;SDS011;44185;47.844;8.966;2023-04-21T09:02:59;8.13;;;3.92;;
58384;SDS011;44185;47.844;8.966;2023-04-21T09:05:25;7.20;;;3.95;;
58384;SDS011;44185;47.844;8.966;2023-04-21T09:07:52;10.10;;;3.95;;
58384;SDS011;44185;47.844;8.966;2023-04-21T09:10:21;7.55;;;3.80;;
58384;SDS011;44185;47.844;8.966;2023-04-21T09:12:48;9.23;;;4.13;;
58384;SDS011;44185;47.844;8.966;2023-04-21T09:15:14;7.30;;;4.13;;
58384;SDS011;44185;47.844;8.966;2023-04-21T09:17:40;6.60;;;3.53;;
58384;SDS011;44185;47.844;8.966;2023-04-21T09:20:12;7.82;;;3.97;;
58384;SDS011;44185;47.844;8.966;2023-04-21T09:22:38;8.10;;;4.27;;
58384;SDS011;44185;47.844;8.966;2023-04-21T09:25:04;8.40;;;3.47;;
58384;SDS011;44185;47.844;8.966;2023-04-21T09:27:30;10.40;;;4.07;;
58384;SDS011;44185;47.844;8.966;2023-04-21T09:29:55;9.70;;;4.32;;
58384;SDS011;44185;47.844;8.966;2023-04-21T09:32:27;8.27;;;4.18;;
58384;SDS011;44185;47.844;8.966;2023-04-21T09:34:52;8.75;;;4.32;;
58384;SDS011;44185;47.844;8.966;2023-04-21T09:37:25;7.72;;;4.32;;
58384;SDS011;44185;47.844;8.966;2023-04-21T09:39:50;9.70;;;4.20;;
58384;SDS011;44185;47.844;8.966;2023-04-21T09:42:16;6.57;;;3.58;;
58384;SDS011;44185;47.844;8.966;2023-04-21T09:44:41;6.45;;;3.83;;
58384;SDS011;44185;47.844;8.966;2023-04-21T09:47:08;6.05;;;3.53;;
58384;SDS011;44185;47.844;8.966;2023-04-21T09:49:35;8.48;;;4.20;;
58384;SDS011;44185;47.844;8.966;2023-04-21T09:52:00;8.65;;;4.40;;
58384;SDS011;44185;47.844;8.966;2023-04-21T09:54:29;6.75;;;4.13;;
58384;SDS011;44185;47.844;8.966;2023-04-21T09:56:57;9.75;;;4.93;;
58384;SDS011;44185;47.844;8.966;2023-04-21T09:59:24;8.35;;;4.72;;
58384;SDS011;44185;47.844;8.966;2023-04-21T10:01:54;7.22;;;4.22;;
58384;SDS011;44185;47.844;8.966;2023-04-21T10:04:21;7.43;;;4.07;;
58384;SDS011;44185;47.844;8.966;2023-04-21T10:06:48;8.38;;;4.57;;
58384;SDS011;44185;47.844;8.966;2023-04-21T10:09:15;8.80;;;4.63;;
58384;SDS011;44185;47.844;8.966;2023-04-21T10:14:12;7.10;;;4.28;;
58384;SDS011;44185;47.844;8.966;2023-04-21T10:16:37;6.68;;;4.40;;
58384;SDS011;44185;47.844;8.966;2023-04-21T10:19:07;10.10;;;5.60;;
58384;SDS011;44185;47.844;8.966;2023-04-21T10:21:48;7.20;;;4.20;;
58384;SDS011;44185;47.844;8.966;2023-04-21T10:24:13;9.77;;;5.25;;
58384;SDS011;44185;47.844;8.966;2023-04-21T10:26:39;6.32;;;3.83;;
58384;SDS011;44185;47.844;8.966;2023-04-21T10:29:06;8.80;;;5.43;;
58384;SDS011;44185;47.844;8.966;2023-04-21T10:31:32;11.00;;;6.00;;
58384;SDS011;44185;47.844;8.966;2023-04-21T10:34:14;9.02;;;4.57;;
58384;SDS011;44185;47.844;8.966;2023-04-21T10:39:42;8.80;;;5.07;;
58384;SDS011;44185;47.844;8.966;2023-04-21T10:45:10;6.53;;;4.10;;
58384;SDS011;44185;47.844;8.966;2023-04-21T10:47:37;8.80;;;5.10;;
58384;SDS011;44185;47.844;8.966;2023-04-21T10:50:11;11.57;;;7.07;;
58384;SDS011;44185;47.844;8.966;2023-04-21T10:52:38;12.85;;;7.35;;
58384;SDS011;44185;47.844;8.966;2023-04-21T10:55:07;12.07;;;7.47;;
58384;SDS011;44185;47.844;8.966;2023-04-21T10:57:34;13.23;;;8.25;;
58384;SDS011;44185;47.844;8.966;2023-04-21T11:00:00;8.25;;;5.10;;
58384;SDS011;44185;47.844;8.966;2023-04-21T11:02:27;8.20;;;5.00;;
58384;SDS011;44185;47.844;8.966;2023-04-21T11:04:53;10.32;;;5.25;;
58384;SDS011;44185;47.844;8.966;2023-04-21T11:07:19;8.20;;;4.18;;
58384;SDS011;44185;47.844;8.966;2023-04-21T11:09:46;8.07;;;4.15;;
58384;SDS011;44185;47.844;8.966;2023-04-21T11:12:13;8.75;;;4.55;;
58384;SDS011;44185;47.844;8.966;2023-04-21T11:14:40;5.80;;;3.90;;
58384;SDS011;44185;47.844;8.966;2023-04-21T11:17:09;5.95;;;3.50;;
58384;SDS011;44185;47.844;8.966;2023-04-21T11:19:37;4.63;;;3.25;;
58384;SDS011;44185;47.844;8.966;2023-04-21T11:22:02;5.10;;;3.10;;
58384;SDS011;44185;47.844;8.966;2023-04-21T11:24:28;6.00;;;3.17;;
58384;SDS011;44185;47.844;8.966;2023-04-21T11:26:54;5.50;;;2.97;;
58384;SDS011;44185;47.844;8.966;2023-04-21T11:29:19;4.75;;;3.38;;
58384;SDS011;44185;47.844;8.966;2023-04-21T11:31:45;3.20;;;2.75;;
58384;SDS011;44185;47.844;8.966;2023-04-21T11:34:10;5.00;;;2.90;;
58384;SDS011;44185;47.844;8.966;2023-04-21T11:36:38;2.88;;;2.35;;
58384;SDS011;44185;47.844;8.966;2023-04-21T11:39:05;2.65;;;1.83;;
58384;SDS011;44185;47.844;8.966;2023-04-21T11:41:30;1.92;;;1.60;;
58384;SDS011;44185;47.844;8.966;2023-04-21T11:43:56;1.63;;;1.23;;
58384;SDS011;44185;47.844;8.966;2023-04-21T11:46:22;3.40;;;2.55;;
58384;SDS011;44185;47.844;8.966;2023-04-21T11:48:56;2.20;;;1.95;;
58384;SDS011;44185;47.844;8.966;2023-04-21T11:51:22;1.67;;;1.45;;
58384;SDS011;44185;47.844;8.966;2023-04-21T11:53:49;1.83;;;1.65;;
58384;SDS011;44185;47.844;8.966;2023-04-21T11:56:19;1.25;;;1.02;;
58384;SDS011;44185;47.844;8.966;2023-04-21T11:58:45;1.35;;;1.23;;
58384;SDS011;44185;47.844;8.966;2023-04-21T12:01:10;1.42;;;0.88;;
58384;SDS011;44185;47.844;8.966;2023-04-21T12:03:39;1.77;;;1.67;;
58384;SDS011;44185;47.844;8.966;2023-04-21T12:06:04;1.10;;;1.00;;
58384;SDS011;44185;47.844;8.966;2023-04-21T12:08:30;2.00;;;1.20;;
58384;SDS011;44185;47.844;8.966;2023-04-21T12:10:57;0.90;;;0.90;;
58384;SDS011;44185;47.844;8.966;2023-04-21T12:13:22;0.90;;;0.90;;
58384;SDS011;44185;47.844;8.966;2023-04-21T12:15:48;1.88;;;0.98;;
58384;SDS011;44185;47.844;8.966;2023-04-21T12:18:14;0.73;;;0.73;;
58384;SDS011;44185;47.844;8.966;2023-04-21T12:20:47;1.15;;;1.05;;
58384;SDS011;44185;47.844;8.966;2023-04-21T12:23:13;0.80;;;0.80;;
58384;SDS011;44185;47.844;8.966;2023-04-21T12:25:38;0.83;;;0.83;;
58384;SDS011;44185;47.844;8.966;2023-04-21T12:28:05;1.77;;;0.60;;
58384;SDS011;44185;47.844;8.966;2023-04-21T12:30:32;0.80;;;0.80;;
58384;SDS011;44185;47.844;8.966;2023-04-21T12:32:58;0.80;;;0.80;;
58384;SDS011;44185;47.844;8.966;2023-04-21T12:35:24;2.08;;;0.70;;
58384;SDS011;44185;47.844;8.966;2023-04-21T12:37:49;0.93;;;0.73;;
58384;SDS011;44185;47.844;8.966;2023-04-21T12:40:15;1.67;;;0.60;;
58384;SDS011;44185;47.844;8.966;2023-04-21T12:42:40;0.60;;;0.60;;
58384;SDS011;44185;47.844;8.966;2023-04-21T12:45:08;0.65;;;0.60;;
58384;SDS011;44185;47.844;8.966;2023-04-21T12:47:33;0.80;;;0.80;;
58384;SDS011;44185;47.844;8.966;2023-04-21T12:49:59;0.73;;;0.73;;
58384;SDS011;44185;47.844;8.966;2023-04-21T12:52:25;0.55;;;0.55;;
58384;SDS011;44185;47.844;8.966;2023-04-21T12:54:50;1.45;;;0.60;;
58384;SDS011;44185;47.844;8.966;2023-04-21T12:57:16;0.90;;;0.90;;
58384;SDS011;44185;47.844;8.966;2023-04-21T12:59:41;0.93;;;0.60;;
58384;SDS011;44185;47.844;8.966;2023-04-21T13:02:08;0.68;;;0.68;;
58384;SDS011;44185;47.844;8.966;2023-04-21T13:04:33;1.70;;;0.88;;
58384;SDS011;44185;47.844;8.966;2023-04-21T13:06:59;2.83;;;1.40;;
58384;SDS011;44185;47.844;8.966;2023-04-21T13:09:24;0.90;;;0.90;;
58384;SDS011;44185;47.844;8.966;2023-04-21T13:11:50;0.95;;;0.95;;
58384;SDS011;44185;47.844;8.966;2023-04-21T13:14:16;0.70;;;0.70;;
58384;SDS011;44185;47.844;8.966;2023-04-21T13:16:42;0.85;;;0.73;;
58384;SDS011;44185;47.844;8.966;2023-04-21T13:19:09;1.15;;;0.90;;
58384;SDS011;44185;47.844;8.966;2023-04-21T13:21:34;2.05;;;0.90;;
58384;SDS011;44185;47.844;8.966;2023-04-21T13:23:59;1.35;;;0.80;;
58384;SDS011;44185;47.844;8.966;2023-04-21T13:26:25;3.47;;;1.17;;
58384;SDS011;44185;47.844;8.966;2023-04-21T13:28:50;1.95;;;1.13;;
58384;SDS011;44185;47.844;8.966;2023-04-21T13:31:16;1.50;;;1.02;;
58384;SDS011;44185;47.844;8.966;2023-04-21T13:33:41;0.90;;;0.90;;
58384;SDS011;44185;47.844;8.966;2023-04-21T13:36:08;0.88;;;0.88;;
58384;SDS011;44185;47.844;8.966;2023-04-21T13:38:33;1.15;;;1.05;;
58384;SDS011;44185;47.844;8.966;2023-04-21T13:40:59;0.98;;;0.95;;
58384;SDS011;44185;47.844;8.966;2023-04-21T13:43:24;1.50;;;1.40;;
58384;SDS011;44185;47.844;8.966;2023-04-21T13:45:50;2.55;;;1.60;;
58384;SDS011;44185;47.844;8.966;2023-04-21T13:48:15;1.83;;;1.38;;
58384;SDS011;44185;47.844;8.966;2023-04-21T13:50:41;0.95;;;0.95;;
58384;SDS011;44185;47.844;8.966;2023-04-21T13:53:08;2.70;;;1.23;;
58384;SDS011;44185;47.844;8.966;2023-04-21T13:55:33;1.02;;;1.00;;
58384;SDS011;44185;47.844;8.966;2023-04-21T13:57:59;1.08;;;0.98;;
58384;SDS011;44185;47.844;8.966;2023-04-21T14:00:24;1.65;;;1.02;;
58384;SDS011;44185;47.844;8.966;2023-04-21T14:02:50;2.45;;;1.27;;
58384;SDS011;44185;47.844;8.966;2023-04-21T14:05:15;1.27;;;0.90;;
58384;SDS011;44185;47.844;8.966;2023-04-21T14:07:41;1.50;;;1.15;;
58384;SDS011;44185;47.844;8.966;2023-04-21T14:10:08;1.67;;;1.00;;
58384;SDS011;44185;47.844;8.966;2023-04-21T14:12:34;1.58;;;1.15;;
58384;SDS011;44185;47.844;8.966;2023-04-21T14:15:00;1.65;;;0.98;;
58384;SDS011;44185;47.844;8.966;2023-04-21T14:17:25;1.00;;;0.80;;
58384;SDS011;44185;47.844;8.966;2023-04-21T14:19:51;2.17;;;1.40;;
58384;SDS011;44185;47.844;8.966;2023-04-21T14:22:16;1.38;;;1.27;;
58384;SDS011;44185;47.844;8.966;2023-04-21T14:24:42;1.40;;;1.30;;
58384;SDS011;44185;47.844;8.966;2023-04-21T14:27:09;1.85;;;1.60;;
58384;SDS011;44185;47.844;8.966;2023-04-21T14:29:34;3.28;;;2.35;;
58384;SDS011;44185;47.844;8.966;2023-04-21T14:32:00;5.30;;;2.88;;
58384;SDS011;44185;47.844;8.966;2023-04-21T14:34:25;4.97;;;3.00;;
58384;SDS011;44185;47.844;8.966;2023-04-21T14:36:51;8.02;;;4.60;;
58384;SDS011;44185;47.844;8.966;2023-04-21T14:39:16;6.70;;;4.10;;
58384;SDS011;44185;47.844;8.966;2023-04-21T14:41:42;10.77;;;5.22;;
58384;SDS011;44185;47.844;8.966;2023-04-21T14:44:08;6.53;;;3.58;;